Nearby METAR Reports

 

KHOT - Hot Springs, Arkansas, USA
Distance from station: W 8mi, 14km
Updated: 11/23/2017 1:53pm
Clear
Clear
 Wind from SSW
Wind: SSW 7 mph , 11 km/h
Temperature: 61°F , 16°C
Dew Point: 23°F , -5°C
Humidity: 23%
Barometer: 30.08 inHg , 1018.6 hPa
Clouds: Clear
Visibility: 10 miles , 16 km
2017/11/23 19:53 KHOT 231953Z AUTO 20006KT 10SM CLR 16/M05 A3008 RMK AO2 SLP184 T01561050
KMWT - Mount Ida, Arkansas, USA
Distance from station: W 36mi, 58km
Updated: 11/23/2017 1:53pm
Clear
Clear
 Wind from W
Wind: W 3 mph , 6 km/h
Temperature: 64°F , 18°C
Dew Point: 27°F , -3°C
Humidity: 24%
Barometer: 30.03 inHg , 1016.9 hPa
Clouds: Clear
Visibility: 10 miles , 16 km
2017/11/23 19:53 KMWT 231953Z AUTO 27003KT 10SM CLR 18/M03 A3003 RMK AO2 SLP175 T01781028
 
KLIT - Little Rock, Arkansas, USA
Distance from station: ENE 45mi, 73km
Updated: 11/23/2017 1:53pm
Partly cloudy
Partly cloudy
 Wind from SSW
Wind: SSW 6 mph , 9 km/h
Temperature: 57°F , 14°C
Dew Point: 23°F , -5°C
Humidity: 27%
Barometer: 30.08 inHg , 1018.6 hPa
Clouds: Partly cloudy
Visibility: 10 miles , 16 km
Cloud details: Partly cloudy 25000 ft
2017/11/23 19:53 KLIT 231953Z 21005KT 10SM SCT250 14/M05 A3008 RMK AO2 SLP190 T01391050
KLRF - Little Rock Afb, Arkansas, USA
Distance from station: NE 56mi, 89km
Updated: 11/23/2017 1:56pm
Clear
Clear
 Wind from S
Wind: S 5 mph , 7 km/h
Temperature: 59°F , 15°C
Dew Point: 23°F , -5°C
Humidity: 25%
Barometer: 30.06 inHg , 1017.9 hPa
Clouds: Clear
Visibility: 10 miles , 16 km
2017/11/23 19:56 KLRF 231956Z AUTO 19004KT 10SM CLR 15/M05 A3006 RMK AO2 SLP183 T01471046